CheckWX is a tool to help pilots better visualize weather data.  It is not intended as a substitute for an official pre-flight weather briefing.

13:21:24 UTC

KHUT METAR
Hutchinson Regional Airport
Hutchinson, Kansas, USA
Current

29 mins ago

KHUT 061252Z 36016G24KT 10SM OVC014 01/M03 A3031 RMK AO2 PK WND 01030/1154 SLP262 T00061033
Observed
Dec-6 @ 12:52 UTC
Wind
  • 360° at 16 KTS
  • Gusting to 24 KTS
Visibility
10 SM
Flight Rules
MVFR
Cloud Levels
  • Overcast at 1,400' AGL
Temperature
C / 34°F
Dewpoint
-3°C / 27°F
Humidity
75%
Altimeter
30.31" Hg
Pressure
1026.42 hPa
Previous

1 hour ago

KHUT 061152Z 01016G28KT 10SM OVC013 02/M02 A3026 RMK AO2 PK WND 35028/1146 SLP244 T00171022 10067 20017 51018
Observed
Dec-6 @ 11:52 UTC
Wind
  • 010° at 16 KTS
  • Gusting to 28 KTS
Visibility
10 SM
Flight Rules
MVFR
Cloud Levels
  • Overcast at 1,300' AGL
Temperature
C / 36°F
Dewpoint
-2°C / 28°F
Humidity
75%
Altimeter
30.26" Hg
Pressure
1024.72 hPa
Previous

2 hours ago

KHUT 061052Z AUTO 35018G26KT 10SM OVC012 02/M01 A3025 RMK AO2 PK WND 36028/1024 SLP242 T00221011
Observed
Dec-6 @ 10:52 UTC
Wind
  • 350° at 18 KTS
  • Gusting to 26 KTS
Visibility
10 SM
Flight Rules
MVFR
Cloud Levels
  • Overcast at 1,200' AGL
Temperature
C / 36°F
Dewpoint
-1°C / 30°F
Humidity
81%
Altimeter
30.25" Hg
Pressure
1024.42 hPa